createdAt,value
2017-09-23T00:00:59.077Z,50.44
2017-09-23T00:01:59.689Z,50.44
2017-09-23T00:03:00.301Z,50.54
2017-09-23T00:04:01.069Z,50.44
2017-09-23T00:05:01.677Z,50.54
2017-09-23T00:06:02.298Z,50.54
2017-09-23T00:07:02.945Z,50.82
2017-09-23T00:08:03.552Z,50.92
2017-09-23T00:09:04.313Z,51.10
2017-09-23T00:10:04.926Z,50.92
2017-09-23T00:11:05.537Z,50.73
2017-09-23T00:12:06.149Z,50.82
2017-09-23T00:13:06.797Z,50.70
2017-09-23T00:14:07.556Z,50.89
2017-09-23T00:15:08.169Z,51.27
2017-09-23T00:16:08.782Z,50.99
2017-09-23T00:17:09.401Z,51.08
2017-09-23T00:18:10.006Z,50.99
2017-09-23T00:19:10.768Z,51.08
2017-09-23T00:20:11.379Z,51.08
2017-09-23T00:21:12.024Z,50.99
2017-09-23T00:22:12.636Z,50.99
2017-09-23T00:23:13.248Z,51.08
2017-09-23T00:24:14.016Z,50.89
2017-09-23T00:25:14.633Z,51.08
2017-09-23T00:26:15.247Z,50.89
2017-09-23T00:27:15.862Z,51.08
2017-09-23T00:28:16.476Z,51.18
2017-09-23T00:29:17.234Z,51.08
2017-09-23T00:30:17.853Z,51.08
2017-09-23T00:31:18.466Z,51.18
2017-09-23T00:32:19.111Z,50.99
2017-09-23T00:33:19.722Z,51.30
2017-09-23T00:34:20.516Z,50.99
2017-09-23T00:35:21.127Z,51.08
2017-09-23T00:36:21.746Z,51.18
2017-09-23T00:37:22.351Z,51.08
2017-09-23T00:38:22.964Z,51.08
2017-09-23T00:39:23.733Z,51.08
2017-09-23T00:40:24.338Z,51.27
2017-09-23T00:41:24.953Z,51.08
2017-09-23T00:42:25.563Z,51.08
2017-09-23T00:43:26.180Z,50.89
2017-09-23T00:44:26.941Z,51.37
2017-09-23T00:45:27.556Z,51.46
2017-09-23T00:46:28.164Z,51.08
2017-09-23T00:47:28.775Z,51.27
2017-09-23T00:48:29.392Z,50.79
2017-09-23T00:49:30.184Z,51.30
2017-09-23T00:50:30.769Z,51.37
2017-09-23T00:51:31.377Z,50.99
2017-09-23T00:52:31.994Z,51.37
2017-09-23T00:53:32.610Z,51.27
2017-09-23T00:54:33.369Z,51.46
2017-09-23T00:55:33.986Z,51.84
2017-09-23T00:56:34.597Z,51.75
2017-09-23T00:57:35.215Z,51.84
2017-09-23T00:58:35.826Z,51.75
2017-09-23T00:59:36.618Z,52.13
2017-09-23T01:00:37.230Z,52.13
2017-09-23T01:01:37.841Z,52.22
2017-09-23T01:02:38.454Z,52.22
2017-09-23T01:03:39.073Z,52.32
2017-09-23T01:04:39.831Z,52.41
2017-09-23T01:05:40.446Z,52.51
2017-09-23T01:06:41.058Z,52.22
2017-09-23T01:07:41.669Z,52.51
2017-09-23T01:08:42.279Z,52.22
2017-09-23T01:09:43.044Z,51.75
2017-09-23T01:10:43.656Z,52.13
2017-09-23T01:11:44.273Z,51.75
2017-09-23T01:12:44.883Z,51.75
2017-09-23T01:13:45.494Z,51.75
2017-09-23T01:14:46.256Z,51.75
2017-09-23T01:15:46.867Z,51.75
2017-09-23T01:16:47.483Z,51.84
2017-09-23T01:17:48.092Z,51.84
2017-09-23T01:18:48.709Z,51.65
2017-09-23T01:19:49.468Z,51.75
2017-09-23T01:20:50.081Z,52.13
2017-09-23T01:21:50.724Z,52.32
2017-09-23T01:22:51.336Z,52.03
2017-09-23T01:23:51.948Z,52.22
2017-09-23T01:24:52.709Z,52.22
2017-09-23T01:25:53.320Z,52.32
2017-09-23T01:26:53.938Z,52.51
2017-09-23T01:27:54.553Z,52.51
2017-09-23T01:28:55.161Z,52.32
2017-09-23T01:29:55.922Z,52.22
2017-09-23T01:30:56.540Z,52.32
2017-09-23T01:31:57.155Z,52.41
2017-09-23T01:32:57.766Z,52.61
2017-09-23T01:33:58.375Z,52.51
2017-09-23T01:34:59.142Z,52.70
2017-09-23T01:35:59.750Z,52.51
2017-09-23T01:37:00.363Z,52.61
2017-09-23T01:38:00.978Z,52.70
2017-09-23T01:39:01.588Z,52.22
2017-09-23T01:40:02.351Z,52.41
2017-09-23T01:41:02.962Z,52.61
2017-09-23T01:42:03.573Z,52.51
2017-09-23T01:43:04.217Z,52.51
2017-09-23T01:44:04.837Z,52.61
2017-09-23T01:45:05.588Z,52.51
2017-09-23T01:46:06.200Z,52.32
2017-09-23T01:47:06.813Z,52.41
2017-09-23T01:48:07.429Z,52.51
2017-09-23T01:49:08.042Z,52.80
2017-09-23T01:50:08.802Z,52.61
2017-09-23T01:51:09.415Z,52.41
2017-09-23T01:52:10.064Z,52.70
2017-09-23T01:53:10.673Z,52.61
2017-09-23T01:54:11.289Z,52.80
2017-09-23T01:55:12.059Z,52.70
2017-09-23T01:56:12.661Z,52.70
2017-09-23T01:57:13.272Z,52.48
2017-09-23T01:58:13.888Z,52.61
2017-09-23T01:59:14.500Z,52.89
2017-09-23T02:00:15.266Z,53.05
2017-09-23T02:01:15.909Z,53.27
2017-09-23T02:02:16.520Z,53.36
2017-09-23T02:03:17.131Z,53.05
2017-09-23T02:04:17.745Z,53.08
2017-09-23T02:05:18.506Z,53.27
2017-09-23T02:06:19.118Z,53.08
2017-09-23T02:07:19.734Z,53.05
2017-09-23T02:08:20.350Z,53.17
2017-09-23T02:09:20.959Z,53.17
2017-09-23T02:10:21.723Z,53.08
2017-09-23T02:11:22.336Z,53.08
2017-09-23T02:12:22.979Z,53.08
2017-09-23T02:13:23.592Z,52.89
2017-09-23T02:14:24.203Z,53.17
2017-09-23T02:15:24.972Z,52.80
2017-09-23T02:16:25.581Z,53.08
2017-09-23T02:17:26.195Z,53.08
2017-09-23T02:18:26.838Z,53.27
2017-09-23T02:19:27.481Z,52.98
2017-09-23T02:20:28.294Z,53.05
2017-09-23T02:21:28.910Z,53.05
2017-09-23T02:22:29.518Z,52.89
2017-09-23T02:23:30.130Z,52.98
2017-09-23T02:24:30.746Z,52.80
2017-09-23T02:25:31.537Z,53.15
2017-09-23T02:26:32.154Z,53.36
2017-09-23T02:27:32.796Z,53.08
2017-09-23T02:28:33.407Z,53.15
2017-09-23T02:29:34.023Z,53.24
2017-09-23T02:30:34.784Z,52.80
2017-09-23T02:31:35.398Z,52.98
2017-09-23T02:32:36.013Z,52.86
2017-09-23T02:33:36.626Z,52.86
2017-09-23T02:34:37.276Z,52.89
2017-09-23T02:35:38.037Z,53.05
2017-09-23T02:36:38.683Z,52.80
2017-09-23T02:37:39.302Z,53.05
2017-09-23T02:38:39.905Z,52.86
2017-09-23T02:39:40.515Z,52.96
2017-09-23T02:40:41.278Z,52.86
2017-09-23T02:41:41.894Z,52.86
2017-09-23T02:42:42.503Z,52.96
2017-09-23T02:43:43.116Z,52.76
2017-09-23T02:44:43.730Z,52.86
2017-09-23T02:45:44.491Z,52.86
2017-09-23T02:46:45.101Z,53.15
2017-09-23T02:47:45.717Z,53.15
2017-09-23T02:48:46.330Z,53.15
2017-09-23T02:49:46.948Z,53.53
2017-09-23T02:50:47.739Z,53.91
2017-09-23T02:51:48.355Z,53.91
2017-09-23T02:52:48.966Z,53.63
2017-09-23T02:53:49.578Z,53.63
2017-09-23T02:54:50.195Z,53.34
2017-09-23T02:55:50.954Z,53.53
2017-09-23T02:56:51.566Z,53.34
2017-09-23T02:57:52.178Z,53.43
2017-09-23T02:58:52.789Z,53.53
2017-09-23T02:59:53.400Z,53.63
2017-09-23T03:00:54.162Z,53.81
2017-09-23T03:01:54.774Z,53.81
2017-09-23T03:02:55.384Z,53.72
2017-09-23T03:03:55.996Z,53.91
2017-09-23T03:04:56.638Z,53.72
2017-09-23T03:05:57.398Z,53.81
2017-09-23T03:06:58.011Z,53.72
2017-09-23T03:07:58.624Z,53.72
2017-09-23T03:08:59.234Z,53.63
2017-09-23T03:09:59.846Z,53.91
2017-09-23T03:11:00.640Z,53.81
2017-09-23T03:12:01.256Z,53.91
2017-09-23T03:13:01.895Z,53.63
2017-09-23T03:14:02.510Z,53.34
2017-09-23T03:15:03.121Z,53.24
2017-09-23T03:16:03.883Z,53.53
2017-09-23T03:17:04.495Z,53.63
2017-09-23T03:18:05.108Z,53.63
2017-09-23T03:19:05.720Z,53.63
2017-09-23T03:20:06.333Z,53.53
2017-09-23T03:21:07.127Z,53.24
2017-09-23T03:22:07.739Z,53.53
2017-09-23T03:23:08.386Z,53.24
2017-09-23T03:24:08.995Z,53.81
2017-09-23T03:25:09.610Z,53.36
2017-09-23T03:26:10.371Z,53.53
2017-09-23T03:27:10.984Z,53.36
2017-09-23T03:28:11.599Z,53.65
2017-09-23T03:29:12.214Z,53.65
2017-09-23T03:30:12.858Z,53.27
2017-09-23T03:31:13.620Z,53.55
2017-09-23T03:32:14.231Z,53.84
2017-09-23T03:33:14.842Z,53.43
2017-09-23T03:34:15.455Z,53.75
2017-09-23T03:35:16.067Z,54.03
2017-09-23T03:36:16.829Z,53.94
2017-09-23T03:37:17.440Z,53.65
2017-09-23T03:38:18.053Z,53.94
2017-09-23T03:39:18.666Z,53.94
2017-09-23T03:40:19.277Z,53.55
2017-09-23T03:41:20.039Z,53.36
2017-09-23T03:42:20.657Z,53.36
2017-09-23T03:43:21.263Z,53.36
2017-09-23T03:44:21.876Z,53.27
2017-09-23T03:45:22.494Z,53.84
2017-09-23T03:46:23.250Z,53.91
2017-09-23T03:47:23.894Z,53.91
2017-09-23T03:48:24.511Z,53.84
2017-09-23T03:49:25.121Z,53.65
2017-09-23T03:50:25.733Z,53.46
2017-09-23T03:51:26.492Z,53.94
2017-09-23T03:52:27.105Z,53.75
2017-09-23T03:53:27.718Z,53.75
2017-09-23T03:54:28.329Z,53.75
2017-09-23T03:55:28.973Z,53.84
2017-09-23T03:56:29.734Z,53.75
2017-09-23T03:57:30.345Z,53.94
2017-09-23T03:58:30.957Z,53.84
2017-09-23T03:59:31.569Z,53.91
2017-09-23T04:00:32.187Z,53.94
2017-09-23T04:01:32.951Z,54.13
2017-09-23T04:02:33.562Z,53.84
2017-09-23T04:03:34.180Z,53.75
2017-09-23T04:04:34.788Z,54.03
2017-09-23T04:05:35.409Z,53.91
2017-09-23T04:06:36.165Z,53.81
2017-09-23T04:07:36.809Z,53.91
2017-09-23T04:08:37.452Z,54.10
2017-09-23T04:09:38.064Z,54.19
2017-09-23T04:10:38.675Z,54.19
2017-09-23T04:11:39.476Z,54.29
2017-09-23T04:12:40.085Z,54.57
2017-09-23T04:13:40.691Z,54.67
2017-09-23T04:14:41.333Z,54.69
2017-09-23T04:15:41.944Z,54.57
2017-09-23T04:16:42.710Z,54.38
2017-09-23T04:17:43.325Z,54.67
2017-09-23T04:18:43.933Z,54.86
2017-09-23T04:19:44.543Z,54.48
2017-09-23T04:20:45.156Z,54.57
2017-09-23T04:21:45.923Z,54.38
2017-09-23T04:22:46.530Z,54.38
2017-09-23T04:23:47.141Z,54.38
2017-09-23T04:24:47.754Z,54.57
2017-09-23T04:25:48.397Z,54.57
2017-09-23T04:26:49.163Z,54.77
2017-09-23T04:27:49.770Z,54.77
2017-09-23T04:28:50.387Z,54.57
2017-09-23T04:29:50.997Z,55.05
2017-09-23T04:30:51.613Z,54.96
2017-09-23T04:31:52.368Z,55.05
2017-09-23T04:32:52.979Z,54.77
2017-09-23T04:33:53.596Z,54.77
2017-09-23T04:34:54.203Z,54.77
2017-09-23T04:35:54.816Z,54.86
2017-09-23T04:36:55.577Z,54.48
2017-09-23T04:37:56.193Z,54.57
2017-09-23T04:38:56.800Z,54.38
2017-09-23T04:39:57.418Z,54.38
2017-09-23T04:40:58.027Z,54.57
2017-09-23T04:41:58.794Z,54.29
2017-09-23T04:42:59.401Z,54.57
2017-09-23T04:44:00.046Z,54.29
2017-09-23T04:45:00.659Z,54.38
2017-09-23T04:46:01.277Z,54.67
2017-09-23T04:47:02.034Z,54.48
2017-09-23T04:48:02.645Z,54.77
2017-09-23T04:49:03.263Z,54.86
2017-09-23T04:50:03.876Z,55.05
2017-09-23T04:51:04.483Z,55.15
2017-09-23T04:52:05.245Z,55.24
2017-09-23T04:53:05.863Z,54.96
2017-09-23T04:54:06.469Z,55.05
2017-09-23T04:55:07.086Z,55.15
2017-09-23T04:56:07.694Z,55.05
2017-09-23T04:57:08.486Z,55.52
2017-09-23T04:58:09.099Z,55.24
2017-09-23T04:59:09.716Z,55.81
2017-09-23T05:00:10.326Z,55.43
2017-09-23T05:01:10.938Z,55.43
2017-09-23T05:02:11.700Z,55.71
2017-09-23T05:03:12.315Z,55.62
2017-09-23T05:04:12.929Z,55.62
2017-09-23T05:05:13.541Z,55.62
2017-09-23T05:06:14.148Z,55.62
2017-09-23T05:07:14.911Z,55.43
2017-09-23T05:08:15.520Z,55.43
2017-09-23T05:09:16.131Z,55.33
2017-09-23T05:10:16.749Z,55.52
2017-09-23T05:11:17.362Z,56.00
2017-09-23T05:12:18.158Z,55.71
2017-09-23T05:13:18.767Z,56.19
2017-09-23T05:14:19.384Z,56.10
2017-09-23T05:15:19.992Z,56.10
2017-09-23T05:16:20.602Z,56.10
2017-09-23T05:17:21.363Z,55.90
2017-09-23T05:18:21.985Z,56.00
2017-09-23T05:19:22.626Z,56.00
2017-09-23T05:20:23.240Z,56.10
2017-09-23T05:21:23.848Z,56.19
2017-09-23T05:22:24.607Z,56.10
2017-09-23T05:23:25.258Z,56.10
2017-09-23T05:24:25.866Z,56.10
2017-09-23T05:25:26.477Z,56.10
2017-09-23T05:26:27.125Z,56.10
2017-09-23T05:27:27.884Z,55.81
2017-09-23T05:28:28.526Z,55.81
2017-09-23T05:29:29.139Z,56.29
2017-09-23T05:30:29.752Z,56.10
2017-09-23T05:31:30.363Z,56.10
2017-09-23T05:32:31.125Z,56.19
2017-09-23T05:33:31.739Z,56.10
2017-09-23T05:34:32.352Z,56.10
2017-09-23T05:35:32.962Z,56.38
2017-09-23T05:36:33.578Z,56.57
2017-09-23T05:37:34.375Z,56.67
2017-09-23T05:38:34.987Z,56.57
2017-09-23T05:39:35.604Z,56.19
2017-09-23T05:40:36.221Z,56.38
2017-09-23T05:41:36.829Z,56.48
2017-09-23T05:42:37.593Z,56.38
2017-09-23T05:43:38.208Z,56.67
2017-09-23T05:44:38.822Z,56.48
2017-09-23T05:45:39.430Z,56.57
2017-09-23T05:46:40.074Z,56.67
2017-09-23T05:47:40.891Z,56.67
2017-09-23T05:48:41.536Z,56.67
2017-09-23T05:49:42.144Z,56.57
2017-09-23T05:50:42.756Z,56.76
2017-09-23T05:51:43.375Z,56.57
2017-09-23T05:52:44.129Z,56.57
2017-09-23T05:53:44.744Z,56.76
2017-09-23T05:54:45.354Z,56.48
2017-09-23T05:55:45.971Z,56.48
2017-09-23T05:56:46.586Z,56.67
2017-09-23T05:57:47.380Z,56.67
2017-09-23T05:58:47.992Z,56.67
2017-09-23T05:59:48.609Z,56.38
2017-09-23T06:00:49.228Z,56.76
2017-09-23T06:01:49.873Z,56.57
2017-09-23T06:02:50.636Z,56.48
2017-09-23T06:03:51.247Z,56.57
2017-09-23T06:04:51.861Z,56.48
2017-09-23T06:05:52.478Z,56.38
2017-09-23T06:06:53.085Z,56.57
2017-09-23T06:07:53.898Z,56.48
2017-09-23T06:08:54.510Z,56.48
2017-09-23T06:09:55.124Z,56.38
2017-09-23T06:10:55.736Z,56.38
2017-09-23T06:11:56.352Z,56.38
2017-09-23T06:12:57.115Z,56.29
2017-09-23T06:13:57.727Z,56.48
2017-09-23T06:14:58.343Z,56.29
2017-09-23T06:15:58.952Z,56.38
2017-09-23T06:16:59.565Z,56.38
2017-09-23T06:18:00.334Z,56.38
2017-09-23T06:19:00.943Z,56.38
2017-09-23T06:20:01.558Z,56.38
2017-09-23T06:21:02.170Z,56.29
2017-09-23T06:22:02.788Z,56.29
2017-09-23T06:23:03.581Z,56.19
2017-09-23T06:24:04.162Z,56.57
2017-09-23T06:25:04.773Z,56.38
2017-09-23T06:26:05.389Z,56.29
2017-09-23T06:27:06.001Z,56.38
2017-09-23T06:28:06.762Z,56.38
2017-09-23T06:29:07.376Z,56.38
2017-09-23T06:30:07.992Z,56.38
2017-09-23T06:31:08.602Z,56.38
2017-09-23T06:32:09.244Z,56.57
2017-09-23T06:33:10.011Z,56.41
2017-09-23T06:34:10.654Z,56.38
2017-09-23T06:35:11.268Z,56.03
2017-09-23T06:36:11.887Z,56.12
2017-09-23T06:37:12.497Z,56.12
2017-09-23T06:38:13.259Z,56.03
2017-09-23T06:39:13.872Z,56.03
2017-09-23T06:40:14.485Z,56.12
2017-09-23T06:41:15.101Z,56.22
2017-09-23T06:42:15.712Z,56.12
2017-09-23T06:43:16.482Z,56.22
2017-09-23T06:44:17.099Z,56.22
2017-09-23T06:45:17.741Z,56.12
2017-09-23T06:46:18.361Z,56.31
2017-09-23T06:47:18.970Z,56.22
2017-09-23T06:48:19.733Z,56.51
2017-09-23T06:49:20.347Z,55.83
2017-09-23T06:50:20.964Z,56.12
2017-09-23T06:51:21.573Z,56.12
2017-09-23T06:52:22.186Z,55.93
2017-09-23T06:53:22.948Z,56.03
2017-09-23T06:54:23.567Z,55.93
2017-09-23T06:55:24.176Z,55.93
2017-09-23T06:56:24.789Z,55.93
2017-09-23T06:57:25.401Z,55.65
2017-09-23T06:58:26.163Z,56.22
2017-09-23T06:59:26.778Z,56.12
2017-09-23T07:00:27.390Z,56.12
2017-09-23T07:01:28.004Z,56.12
2017-09-23T07:02:28.624Z,56.15
2017-09-23T07:03:29.387Z,55.87
2017-09-23T07:04:30.002Z,56.24
2017-09-23T07:05:30.617Z,56.15
2017-09-23T07:06:31.235Z,56.05
2017-09-23T07:07:31.845Z,55.87
2017-09-23T07:08:32.647Z,56.24
2017-09-23T07:09:33.260Z,55.96
2017-09-23T07:10:33.881Z,55.77
2017-09-23T07:11:34.497Z,55.77
2017-09-23T07:12:35.109Z,55.39
2017-09-23T07:13:35.912Z,55.32
2017-09-23T07:14:36.525Z,55.10
2017-09-23T07:15:37.145Z,55.22
2017-09-23T07:16:37.759Z,55.42
2017-09-23T07:17:38.373Z,55.22
2017-09-23T07:18:39.139Z,55.42
2017-09-23T07:19:39.756Z,55.22
2017-09-23T07:20:40.370Z,55.13
2017-09-23T07:21:40.987Z,55.01
2017-09-23T07:22:41.602Z,55.04
2017-09-23T07:23:42.374Z,55.10
2017-09-23T07:24:42.994Z,55.20
2017-09-23T07:25:43.607Z,55.20
2017-09-23T07:26:44.221Z,55.20
2017-09-23T07:27:44.834Z,55.29
2017-09-23T07:28:45.600Z,55.29
2017-09-23T07:29:46.215Z,55.22
2017-09-23T07:30:46.837Z,55.49
2017-09-23T07:31:47.451Z,55.04
2017-09-23T07:32:48.071Z,55.22
2017-09-23T07:33:48.839Z,55.13
2017-09-23T07:34:49.453Z,55.22
2017-09-23T07:35:50.069Z,55.42
2017-09-23T07:36:50.686Z,55.42
2017-09-23T07:37:51.300Z,55.32
2017-09-23T07:38:52.073Z,55.22
2017-09-23T07:39:52.685Z,55.22
2017-09-23T07:40:53.308Z,55.32
2017-09-23T07:41:53.928Z,55.42
2017-09-23T07:42:54.547Z,55.32
2017-09-23T07:43:55.310Z,55.04
2017-09-23T07:44:55.928Z,55.22
2017-09-23T07:45:56.543Z,55.22
2017-09-23T07:46:57.164Z,55.35
2017-09-23T07:47:57.778Z,55.35
2017-09-23T07:48:58.548Z,55.16
2017-09-23T07:49:59.200Z,54.97
2017-09-23T07:50:59.815Z,54.59
2017-09-23T07:52:00.432Z,54.59
2017-09-23T07:53:01.053Z,54.49
2017-09-23T07:54:01.815Z,54.59
2017-09-23T07:55:02.461Z,54.49
2017-09-23T07:56:03.083Z,54.49
2017-09-23T07:57:03.695Z,54.49
2017-09-23T07:58:04.312Z,54.59
2017-09-23T07:59:05.080Z,54.88
2017-09-23T08:00:05.697Z,54.59
2017-09-23T08:01:06.316Z,54.59
2017-09-23T08:02:06.931Z,54.39
2017-09-23T08:03:07.551Z,54.30
2017-09-23T08:04:08.313Z,54.49
2017-09-23T08:05:08.934Z,54.59
2017-09-23T08:06:09.547Z,53.83
2017-09-23T08:07:10.169Z,54.02
2017-09-23T08:08:10.781Z,54.21
2017-09-23T08:09:11.580Z,54.39
2017-09-23T08:10:12.204Z,54.02
2017-09-23T08:11:12.817Z,53.83
2017-09-23T08:12:13.433Z,54.02
2017-09-23T08:13:14.058Z,53.54
2017-09-23T08:14:14.819Z,53.83
2017-09-23T08:15:15.435Z,53.85
2017-09-23T08:16:16.055Z,53.95
2017-09-23T08:17:16.670Z,54.24
2017-09-23T08:18:17.285Z,53.95
2017-09-23T08:19:18.057Z,53.47
2017-09-23T08:20:18.670Z,53.95
2017-09-23T08:21:19.323Z,53.95
2017-09-23T08:22:19.943Z,53.95
2017-09-23T08:23:20.556Z,54.07
2017-09-23T08:24:21.329Z,53.97
2017-09-23T08:25:21.943Z,53.78
2017-09-23T08:26:22.560Z,54.07
2017-09-23T08:27:23.176Z,54.17
2017-09-23T08:28:23.793Z,53.31
2017-09-23T08:29:24.559Z,52.73
2017-09-23T08:30:25.176Z,52.92
2017-09-23T08:31:25.791Z,53.21
2017-09-23T08:32:26.407Z,53.31
2017-09-23T08:33:27.026Z,53.21
2017-09-23T08:34:27.799Z,53.69
2017-09-23T08:35:28.414Z,53.31
2017-09-23T08:36:29.042Z,53.02
2017-09-23T08:37:29.652Z,52.83
2017-09-23T08:38:30.274Z,52.45
2017-09-23T08:39:31.041Z,52.64
2017-09-23T08:40:31.657Z,52.55
2017-09-23T08:41:32.274Z,53.21
2017-09-23T08:42:32.891Z,52.92
2017-09-23T08:43:33.507Z,53.02
2017-09-23T08:44:34.278Z,52.83
2017-09-23T08:45:34.889Z,52.64
2017-09-23T08:46:35.512Z,52.64
2017-09-23T08:47:36.124Z,52.55
2017-09-23T08:48:36.743Z,53.14
2017-09-23T08:49:37.509Z,52.67
2017-09-23T08:50:38.128Z,52.48
2017-09-23T08:51:38.745Z,52.76
2017-09-23T08:52:39.363Z,52.88
2017-09-23T08:53:39.979Z,52.50
2017-09-23T08:54:40.746Z,52.12
2017-09-23T08:55:41.363Z,51.93
2017-09-23T08:56:41.981Z,51.83
2017-09-23T08:57:42.629Z,51.35
2017-09-23T08:58:43.245Z,51.17
2017-09-23T08:59:44.014Z,51.17
2017-09-23T09:00:44.637Z,51.26
2017-09-23T09:01:45.252Z,51.17
2017-09-23T09:02:45.868Z,50.88
2017-09-23T09:03:46.487Z,51.17
2017-09-23T09:04:47.252Z,50.59
2017-09-23T09:05:47.877Z,51.17
2017-09-23T09:06:48.496Z,51.07
2017-09-23T09:07:49.113Z,50.69
2017-09-23T09:08:49.730Z,50.40
2017-09-23T09:09:50.500Z,50.59
2017-09-23T09:10:51.115Z,50.98
2017-09-23T09:11:51.731Z,50.69
2017-09-23T09:12:52.350Z,50.69
2017-09-23T09:13:52.969Z,50.62
2017-09-23T09:14:53.736Z,50.12
2017-09-23T09:15:54.352Z,50.62
2017-09-23T09:16:54.976Z,50.43
2017-09-23T09:17:55.590Z,50.24
2017-09-23T09:18:56.209Z,50.43
2017-09-23T09:19:56.977Z,50.24
2017-09-23T09:20:57.593Z,50.07
2017-09-23T09:21:58.212Z,49.66
2017-09-23T09:22:58.828Z,50.07
2017-09-23T09:23:59.447Z,50.07
2017-09-23T09:25:00.222Z,49.78
2017-09-23T09:26:00.836Z,49.40
2017-09-23T09:27:01.454Z,49.49
2017-09-23T09:28:02.070Z,49.21
2017-09-23T09:29:02.688Z,49.02
2017-09-23T09:30:03.456Z,49.21
2017-09-23T09:31:04.073Z,48.64
2017-09-23T09:32:04.690Z,48.64
2017-09-23T09:33:05.307Z,48.54
2017-09-23T09:34:05.932Z,48.44
2017-09-23T09:35:06.697Z,48.64
2017-09-23T09:36:07.317Z,48.64
2017-09-23T09:37:07.935Z,48.38
2017-09-23T09:38:08.553Z,48.66
2017-09-23T09:39:09.204Z,48.38
2017-09-23T09:40:09.976Z,48.09
2017-09-23T09:41:10.593Z,47.71
2017-09-23T09:42:11.209Z,47.42
2017-09-23T09:43:11.828Z,47.52
2017-09-23T09:44:12.448Z,47.53
2017-09-23T09:45:13.249Z,47.53
2017-09-23T09:46:13.867Z,47.34
2017-09-23T09:47:14.492Z,46.10
2017-09-23T09:48:15.107Z,45.91
2017-09-23T09:49:15.725Z,45.91
2017-09-23T09:50:16.492Z,46.30
2017-09-23T09:51:17.112Z,46.10
2017-09-23T09:52:17.731Z,46.10
2017-09-23T09:53:18.374Z,46.30
2017-09-23T09:54:18.977Z,45.91
2017-09-23T09:55:19.743Z,46.30
2017-09-23T09:56:20.364Z,46.20
2017-09-23T09:57:20.982Z,46.10
2017-09-23T09:58:21.606Z,46.12
2017-09-23T09:59:22.222Z,46.12
2017-09-23T10:00:22.991Z,46.03
2017-09-23T10:01:23.609Z,44.88
2017-09-23T10:02:24.228Z,45.07
2017-09-23T10:03:24.847Z,45.26
2017-09-23T10:04:25.500Z,44.69
2017-09-23T10:05:26.270Z,44.88
2017-09-23T10:06:26.888Z,45.84
2017-09-23T10:07:27.507Z,44.88
2017-09-23T10:08:28.130Z,46.05
2017-09-23T10:09:28.745Z,45.48
2017-09-23T10:10:29.514Z,45.09
2017-09-23T10:11:30.137Z,45.09
2017-09-23T10:12:30.763Z,44.64
2017-09-23T10:13:31.407Z,44.45
2017-09-23T10:14:32.029Z,44.54
2017-09-23T10:15:32.805Z,44.35
2017-09-23T10:16:33.428Z,44.06
2017-09-23T10:17:34.049Z,43.49
2017-09-23T10:18:34.707Z,43.49
2017-09-23T10:19:35.319Z,43.97
2017-09-23T10:20:36.089Z,44.06
2017-09-23T10:21:36.709Z,44.45
2017-09-23T10:22:37.328Z,44.26
2017-09-23T10:23:37.949Z,44.35
2017-09-23T10:24:38.569Z,44.18
2017-09-23T10:25:39.356Z,43.99
2017-09-23T10:26:39.963Z,42.55
2017-09-23T10:27:40.582Z,42.34
2017-09-23T10:28:41.209Z,42.91
2017-09-23T10:29:41.829Z,42.44
2017-09-23T10:30:42.602Z,42.24
2017-09-23T10:31:43.256Z,42.34
2017-09-23T10:32:43.848Z,43.01
2017-09-23T10:33:44.473Z,43.01
2017-09-23T10:34:45.091Z,43.10
2017-09-23T10:35:45.864Z,44.06
2017-09-23T10:36:46.484Z,44.06
2017-09-23T10:37:47.108Z,43.99
2017-09-23T10:38:47.728Z,42.65
2017-09-23T10:39:48.349Z,42.36
2017-09-23T10:40:49.121Z,42.36
2017-09-23T10:41:49.744Z,42.74
2017-09-23T10:42:50.365Z,42.94
2017-09-23T10:43:50.993Z,42.36
2017-09-23T10:44:51.613Z,42.07
2017-09-23T10:45:52.415Z,41.50
2017-09-23T10:46:53.038Z,42.17
2017-09-23T10:47:53.659Z,41.88
2017-09-23T10:48:54.281Z,42.53
2017-09-23T10:49:54.901Z,42.94
2017-09-23T10:50:55.710Z,43.03
2017-09-23T10:51:56.335Z,42.27
2017-09-23T10:52:56.955Z,41.90
2017-09-23T10:53:57.577Z,42.10
2017-09-23T10:54:58.234Z,42.00
2017-09-23T10:55:59.009Z,41.13
2017-09-23T10:56:59.641Z,42.10
2017-09-23T10:58:00.262Z,41.13
2017-09-23T10:59:00.879Z,40.84
2017-09-23T11:00:01.504Z,40.66
2017-09-23T11:01:02.274Z,41.42
2017-09-23T11:02:02.928Z,41.23
2017-09-23T11:03:03.552Z,39.89
2017-09-23T11:04:04.174Z,39.89
2017-09-23T11:05:04.796Z,40.77
2017-09-23T11:06:05.572Z,40.77
2017-09-23T11:07:06.224Z,40.39
2017-09-23T11:08:06.847Z,39.91
2017-09-23T11:09:07.501Z,39.43
2017-09-23T11:10:08.122Z,39.91
2017-09-23T11:11:08.902Z,39.91
2017-09-23T11:12:09.523Z,39.43
2017-09-23T11:13:10.145Z,38.85
2017-09-23T11:14:10.773Z,39.14
2017-09-23T11:15:11.397Z,39.43
2017-09-23T11:16:12.168Z,40.10
2017-09-23T11:17:12.796Z,39.81
2017-09-23T11:18:13.417Z,39.93
2017-09-23T11:19:14.038Z,38.96
2017-09-23T11:20:14.702Z,38.68
2017-09-23T11:21:15.518Z,38.87
2017-09-23T11:22:16.141Z,38.96
2017-09-23T11:23:16.770Z,39.18
2017-09-23T11:24:17.396Z,38.79
2017-09-23T11:25:18.022Z,38.89
2017-09-23T11:26:18.797Z,39.18
2017-09-23T11:27:19.418Z,38.81
2017-09-23T11:28:20.039Z,38.04
2017-09-23T11:29:20.665Z,37.08
2017-09-23T11:30:21.292Z,36.80
2017-09-23T11:31:21.918Z,37.57
2017-09-23T11:32:22.540Z,37.35
2017-09-23T11:33:23.314Z,37.93
2017-09-23T11:34:23.936Z,37.27
2017-09-23T11:35:24.561Z,37.57
2017-09-23T11:36:25.183Z,37.37
2017-09-23T11:37:25.808Z,37.37
2017-09-23T11:38:26.586Z,37.18
2017-09-23T11:39:27.210Z,36.80
2017-09-23T11:40:27.832Z,36.99
2017-09-23T11:41:28.456Z,37.18
2017-09-23T11:42:29.078Z,37.27
2017-09-23T11:43:29.888Z,37.76
2017-09-23T11:44:30.513Z,37.30
2017-09-23T11:45:31.137Z,37.20
2017-09-23T11:46:31.757Z,36.53
2017-09-23T11:47:32.382Z,36.43
2017-09-23T11:48:33.156Z,36.43
2017-09-23T11:49:33.780Z,35.08
2017-09-23T11:50:34.407Z,34.01
2017-09-23T11:51:35.029Z,34.28
2017-09-23T11:52:35.652Z,35.24
2017-09-23T11:53:36.424Z,35.63
2017-09-23T11:54:37.048Z,36.68
2017-09-23T11:55:37.702Z,35.91
2017-09-23T11:56:38.326Z,35.36
2017-09-23T11:57:38.949Z,34.86
2017-09-23T11:58:39.825Z,35.26
2017-09-23T11:59:40.480Z,35.45
2017-09-23T12:00:41.140Z,35.16
2017-09-23T12:01:41.765Z,35.26
2017-09-23T12:02:42.418Z,35.66
2017-09-23T12:03:43.198Z,35.28
2017-09-23T12:04:43.860Z,34.30
2017-09-23T12:05:44.486Z,34.97
2017-09-23T12:06:45.107Z,34.80
2017-09-23T12:07:45.732Z,34.89
2017-09-23T12:08:46.504Z,33.84
2017-09-23T12:09:47.131Z,34.39
2017-09-23T12:10:47.756Z,34.30
2017-09-23T12:11:48.383Z,34.28
2017-09-23T12:12:49.037Z,34.76
2017-09-23T12:13:49.812Z,34.36
2017-09-23T12:14:50.434Z,35.14
2017-09-23T12:15:51.058Z,35.63
2017-09-23T12:16:51.682Z,35.03
2017-09-23T12:17:52.304Z,34.36
2017-09-23T12:18:53.076Z,35.32
2017-09-23T12:19:53.699Z,35.42
2017-09-23T12:20:54.327Z,35.11
2017-09-23T12:21:54.946Z,35.28
2017-09-23T12:22:55.567Z,35.67
2017-09-23T12:23:56.348Z,36.32
2017-09-23T12:24:56.971Z,36.71
2017-09-23T12:25:57.592Z,36.49
2017-09-23T12:26:58.213Z,37.26
2017-09-23T12:27:58.841Z,37.66
2017-09-23T12:28:59.612Z,38.05
2017-09-23T12:30:00.265Z,38.24
2017-09-23T12:31:00.887Z,36.99
2017-09-23T12:32:01.515Z,36.91
2017-09-23T12:33:02.134Z,37.01
2017-09-23T12:34:02.906Z,37.51
2017-09-23T12:35:03.529Z,37.32
2017-09-23T12:36:04.152Z,36.55
2017-09-23T12:37:04.773Z,36.26
2017-09-23T12:38:05.395Z,35.78
2017-09-23T12:39:06.357Z,35.49
2017-09-23T12:40:06.952Z,36.28
2017-09-23T12:41:07.570Z,35.89
2017-09-23T12:42:08.193Z,35.71
2017-09-23T12:43:08.816Z,35.42
2017-09-23T12:44:09.595Z,35.22
2017-09-23T12:45:10.219Z,34.84
2017-09-23T12:46:10.838Z,35.13
2017-09-23T12:47:11.459Z,35.13
2017-09-23T12:48:12.085Z,35.22
2017-09-23T12:49:12.990Z,34.75
2017-09-23T12:50:13.614Z,35.51
2017-09-23T12:51:14.235Z,35.61
2017-09-23T12:52:14.857Z,35.61
2017-09-23T12:53:15.480Z,35.61
2017-09-23T12:54:16.355Z,35.42
2017-09-23T12:55:16.983Z,35.43
2017-09-23T12:56:17.604Z,35.14
2017-09-23T12:57:18.227Z,34.76
2017-09-23T12:58:18.853Z,33.99
2017-09-23T12:59:19.630Z,33.90
2017-09-23T13:00:20.251Z,34.19
2017-09-23T13:01:20.874Z,33.82